Time;durP1;ratioP1;P1;durP2;ratioP2;P2;SDS_P1;SDS_P2;PMS_P1;PMS_P2;Temp;Humidity;BMP_temperature;BMP_pressure;BME280_temperature;BME280_humidity;BME280_pressure;Samples;Min_cycle;Max_cycle;Signal;HPM_P1;HPM_P2
2021/12/09 00:00:43;;;;;;;13.43;2.30;;;;;;;;;;5011498;28;20586;-74
2021/12/09 00:03:11;;;;;;;10.85;2.53;;;;;;;;;;5017727;28;20040;-75
2021/12/09 00:05:37;;;;;;;7.75;1.63;;;;;;;;;;5011835;28;20046;-74
2021/12/09 00:08:04;;;;;;;13.48;3.40;;;;;;;;;;5013033;28;20030;-76
2021/12/09 00:10:29;;;;;;;10.52;2.03;;;;;;;;;;5005708;28;20470;-75
2021/12/09 00:12:55;;;;;;;16.07;3.03;;;;;;;;;;5004501;28;20073;-75
2021/12/09 00:15:21;;;;;;;5.93;1.53;;;;;;;;;;5008339;28;20363;-75
2021/12/09 00:17:46;;;;;;;19.10;3.27;;;;;;;;;;5007230;28;20030;-75
2021/12/09 00:20:13;;;;;;;11.53;1.83;;;;;;;;;;5008479;28;20470;-75
2021/12/09 00:22:39;;;;;;;14.73;2.38;;;;;;;;;;5003901;28;20029;-75
2021/12/09 00:25:05;;;;;;;11.63;3.57;;;;;;;;;;4999499;28;20034;-75
2021/12/09 00:27:30;;;;;;;17.30;3.10;;;;;;;;;;5005542;28;20046;-75
2021/12/09 00:29:55;;;;;;;14.47;3.67;;;;;;;;;;5012647;28;20279;-75
2021/12/09 00:32:21;;;;;;;8.70;2.17;;;;;;;;;;5012754;28;20450;-75
2021/12/09 00:34:49;;;;;;;9.50;1.90;;;;;;;;;;5012445;28;20049;-74
2021/12/09 00:37:20;;;;;;;9.07;1.80;;;;;;;;;;5012737;28;20056;-76
2021/12/09 00:39:49;;;;;;;15.48;1.98;;;;;;;;;;5012875;28;20034;-75
2021/12/09 00:42:14;;;;;;;10.45;3.53;;;;;;;;;;5011095;28;20038;-77
2021/12/09 00:44:40;;;;;;;13.10;2.93;;;;;;;;;;5003547;28;20041;-75
2021/12/09 00:47:06;;;;;;;8.57;1.90;;;;;;;;;;5016344;28;20037;-75
2021/12/09 00:49:31;;;;;;;9.55;1.58;;;;;;;;;;5016216;28;20128;-74
2021/12/09 00:51:58;;;;;;;9.40;2.00;;;;;;;;;;5014204;28;21839;-75
2021/12/09 00:54:24;;;;;;;11.77;1.55;;;;;;;;;;5023623;28;20060;-72
2021/12/09 00:56:49;;;;;;;11.53;2.07;;;;;;;;;;5012123;28;20490;-72
2021/12/09 00:59:15;;;;;;;11.37;1.70;;;;;;;;;;5016250;28;20469;-72
2021/12/09 01:01:40;;;;;;;8.43;1.53;;;;;;;;;;5015754;28;20025;-72
2021/12/09 01:04:06;;;;;;;8.97;2.07;;;;;;;;;;5015943;28;20046;-73
2021/12/09 01:06:31;;;;;;;6.43;1.93;;;;;;;;;;5015631;28;20026;-72
2021/12/09 01:08:57;;;;;;;8.00;2.07;;;;;;;;;;5014470;28;20168;-72
2021/12/09 01:11:22;;;;;;;7.93;1.20;;;;;;;;;;5015677;28;20038;-72
2021/12/09 01:13:48;;;;;;;11.03;1.40;;;;;;;;;;5015562;28;20057;-75
2021/12/09 01:16:13;;;;;;;7.50;1.17;;;;;;;;;;5015784;28;20108;-75
2021/12/09 01:18:40;;;;;;;10.07;1.63;;;;;;;;;;5015982;28;20498;-75
2021/12/09 01:21:06;;;;;;;9.50;2.00;;;;;;;;;;5014765;28;20026;-74
2021/12/09 01:23:31;;;;;;;10.52;1.75;;;;;;;;;;5015677;28;20042;-75
2021/12/09 01:26:01;;;;;;;12.17;2.70;;;;;;;;;;5016129;28;20042;-74
2021/12/09 01:28:30;;;;;;;9.63;2.63;;;;;;;;;;5015498;28;20080;-75
2021/12/09 01:31:06;;;;;;;11.98;2.15;;;;;;;;;;5011878;28;20556;-76
2021/12/09 01:33:33;;;;;;;8.75;2.05;;;;;;;;;;5010559;28;20046;-75
2021/12/09 01:35:59;;;;;;;;;;;;;;;;;;5013775;28;20042;-74
2021/12/09 01:38:28;;;;;;;11.02;1.95;;;;;;;;;;5015109;28;19921;-75
2021/12/09 01:40:55;;;;;;;12.57;1.85;;;;;;;;;;5010158;28;20117;-75
2021/12/09 01:43:21;;;;;;;19.48;3.03;;;;;;;;;;5010402;28;20496;-74
2021/12/09 01:45:46;;;;;;;6.18;2.47;;;;;;;;;;5012130;28;20099;-74
2021/12/09 01:48:12;;;;;;;27.73;2.87;;;;;;;;;;5014727;28;20037;-75
2021/12/09 01:50:37;;;;;;;18.90;2.83;;;;;;;;;;5015131;28;20107;-74
2021/12/09 01:53:03;;;;;;;11.07;2.93;;;;;;;;;;5015308;28;20048;-75
2021/12/09 01:55:30;;;;;;;14.07;1.80;;;;;;;;;;5001584;28;20026;-74
2021/12/09 01:57:56;;;;;;;;;;;;;;;;;;5011674;28;20065;-74
2021/12/09 02:00:25;;;;;;;9.30;1.58;;;;;;;;;;5014926;28;20377;-74
2021/12/09 02:02:51;;;;;;;10.63;1.70;;;;;;;;;;5012488;28;20029;-74
2021/12/09 02:05:17;;;;;;;9.37;2.50;;;;;;;;;;5012685;28;20024;-74
2021/12/09 02:07:43;;;;;;;7.10;1.60;;;;;;;;;;5014124;28;20294;-73
2021/12/09 02:10:13;;;;;;;14.02;1.33;;;;;;;;;;5010471;28;20041;-74
2021/12/09 02:12:38;;;;;;;6.47;1.58;;;;;;;;;;5001788;28;20038;-74
2021/12/09 02:15:05;;;;;;;13.63;2.03;;;;;;;;;;5002988;28;20108;-74
2021/12/09 02:17:31;;;;;;;7.28;2.13;;;;;;;;;;5024580;28;20034;-74
2021/12/09 02:19:57;;;;;;;10.23;2.13;;;;;;;;;;5013323;28;20044;-73
2021/12/09 02:22:23;;;;;;;7.38;1.17;;;;;;;;;;5014404;28;20386;-73
2021/12/09 02:24:52;;;;;;;16.20;3.10;;;;;;;;;;5014444;28;20489;-73
2021/12/09 02:27:17;;;;;;;11.48;1.85;;;;;;;;;;5013548;28;20263;-74
2021/12/09 02:29:42;;;;;;;7.07;1.77;;;;;;;;;;5013862;28;20402;-74
2021/12/09 02:32:08;;;;;;;10.83;1.63;;;;;;;;;;5003639;28;20478;-74
2021/12/09 02:34:34;;;;;;;12.30;2.03;;;;;;;;;;5012356;28;20545;-73
2021/12/09 02:37:00;;;;;;;6.88;1.50;;;;;;;;;;5014056;28;20583;-73
2021/12/09 02:39:26;;;;;;;9.93;1.87;;;;;;;;;;5014259;28;20074;-73
2021/12/09 02:41:51;;;;;;;10.93;1.90;;;;;;;;;;5013914;28;20329;-73
2021/12/09 02:44:18;;;;;;;13.20;2.07;;;;;;;;;;5013136;28;20034;-73
2021/12/09 02:46:46;;;;;;;8.40;1.13;;;;;;;;;;5014040;28;20036;-74
2021/12/09 02:49:15;;;;;;;7.97;2.03;;;;;;;;;;5009762;28;20113;-73
2021/12/09 02:51:41;;;;;;;9.80;1.38;;;;;;;;;;5012689;28;20121;-73
2021/12/09 02:54:08;;;;;;;8.48;1.50;;;;;;;;;;5014220;28;20038;-74
2021/12/09 02:56:34;;;;;;;9.27;1.92;;;;;;;;;;5009389;28;20393;-73
2021/12/09 02:59:00;;;;;;;7.30;2.23;;;;;;;;;;5012629;28;20038;-73
2021/12/09 03:01:28;;;;;;;6.07;1.97;;;;;;;;;;5013581;28;20080;-73
2021/12/09 03:03:59;;;;;;;9.90;1.92;;;;;;;;;;5012928;28;20032;-73
2021/12/09 03:06:40;;;;;;;11.00;2.03;;;;;;;;;;5009922;28;20073;-73
2021/12/09 03:09:08;;;;;;;8.50;1.30;;;;;;;;;;5012512;28;20080;-73
2021/12/09 03:11:35;;;;;;;14.98;2.00;;;;;;;;;;5002174;28;20046;-73
2021/12/09 03:14:01;;;;;;;7.90;2.47;;;;;;;;;;5012323;28;20465;-73
2021/12/09 03:16:26;;;;;;;9.03;2.20;;;;;;;;;;5013570;28;20073;-73
2021/12/09 03:18:57;;;;;;;15.63;2.47;;;;;;;;;;5013602;28;20478;-73
2021/12/09 03:21:26;;;;;;;12.88;2.28;;;;;;;;;;5013284;28;20036;-73
2021/12/09 03:23:52;;;;;;;9.60;1.55;;;;;;;;;;5013777;28;20042;-73
2021/12/09 03:26:25;;;;;;;8.77;2.47;;;;;;;;;;5013035;28;20045;-73
2021/12/09 03:28:51;;;;;;;15.88;2.55;;;;;;;;;;5012265;28;20040;-73
2021/12/09 03:31:17;;;;;;;9.85;2.33;;;;;;;;;;5013038;28;20057;-73
2021/12/09 03:33:42;;;;;;;7.97;2.33;;;;;;;;;;5012628;28;20042;-73
2021/12/09 03:36:08;;;;;;;6.13;1.43;;;;;;;;;;5013339;28;20049;-73
2021/12/09 03:38:33;;;;;;;10.40;2.03;;;;;;;;;;5013481;28;20382;-73
2021/12/09 03:40:59;;;;;;;6.87;2.17;;;;;;;;;;5013344;28;20034;-74
2021/12/09 03:43:25;;;;;;;6.47;1.50;;;;;;;;;;5013494;28;20044;-73
2021/12/09 03:45:55;;;;;;;9.83;1.23;;;;;;;;;;5013509;28;20043;-73
2021/12/09 03:48:24;;;;;;;9.73;1.80;;;;;;;;;;5023789;28;20069;-74
2021/12/09 03:50:50;;;;;;;7.47;1.45;;;;;;;;;;5024679;28;20088;-73
2021/12/09 03:53:16;;;;;;;13.65;2.88;;;;;;;;;;5009268;28;20046;-73
2021/12/09 03:55:41;;;;;;;8.23;1.50;;;;;;;;;;5013027;28;20092;-73
2021/12/09 03:58:07;;;;;;;8.10;1.43;;;;;;;;;;5013301;28;20038;-73
2021/12/09 04:00:33;;;;;;;10.43;1.93;;;;;;;;;;5018427;28;20117;-73
2021/12/09 04:02:58;;;;;;;17.77;3.30;;;;;;;;;;5012856;28;20033;-73
2021/12/09 04:05:24;;;;;;;10.40;1.47;;;;;;;;;;5013168;28;20042;-73
2021/12/09 04:07:51;;;;;;;8.20;1.13;;;;;;;;;;5008755;28;20042;-73
2021/12/09 04:10:16;;;;;;;7.63;1.27;;;;;;;;;;5004271;28;20154;-73
2021/12/09 04:12:42;;;;;;;7.13;3.57;;;;;;;;;;5013120;28;20129;-73
2021/12/09 04:15:08;;;;;;;11.07;1.70;;;;;;;;;;5012935;28;20073;-73
2021/12/09 04:17:34;;;;;;;8.82;1.30;;;;;;;;;;5008259;28;20042;-73
2021/12/09 04:19:59;;;;;;;7.57;1.57;;;;;;;;;;5022453;28;20041;-73
2021/12/09 04:22:25;;;;;;;5.70;0.87;;;;;;;;;;5014211;28;20084;-73
2021/12/09 04:24:52;;;;;;;8.50;1.20;;;;;;;;;;5010568;28;20141;-73
2021/12/09 04:27:18;;;;;;;11.40;2.38;;;;;;;;;;5015481;28;20160;-73
2021/12/09 04:29:44;;;;;;;7.97;2.67;;;;;;;;;;5009011;28;20085;-73
2021/12/09 04:32:09;;;;;;;5.93;2.10;;;;;;;;;;5016629;28;20470;-75
2021/12/09 04:34:35;;;;;;;6.47;1.30;;;;;;;;;;5016116;28;20046;-73
2021/12/09 04:37:00;;;;;;;3.97;1.30;;;;;;;;;;5016716;28;20046;-75
2021/12/09 04:39:26;;;;;;;4.07;1.37;;;;;;;;;;5016389;28;20104;-75
2021/12/09 04:41:53;;;;;;;4.97;1.60;;;;;;;;;;5015311;28;20041;-75
2021/12/09 04:44:19;;;;;;;4.45;1.15;;;;;;;;;;5005355;28;20490;-72
2021/12/09 04:46:45;;;;;;;9.30;1.80;;;;;;;;;;5015085;28;20041;-72
2021/12/09 04:49:11;;;;;;;14.27;1.92;;;;;;;;;;5016376;28;20050;-73
2021/12/09 04:51:37;;;;;;;9.67;3.37;;;;;;;;;;5016243;28;20065;-72
2021/12/09 04:54:04;;;;;;;5.33;1.57;;;;;;;;;;5016163;28;20137;-72
2021/12/09 04:56:30;;;;;;;12.98;2.08;;;;;;;;;;5015106;28;20042;-72
2021/12/09 04:58:55;;;;;;;5.73;2.57;;;;;;;;;;5016395;28;20038;-73
2021/12/09 05:01:22;;;;;;;24.93;2.60;;;;;;;;;;5028632;28;20432;-74
2021/12/09 05:03:48;;;;;;;7.03;2.03;;;;;;;;;;5009046;28;20048;-74
2021/12/09 05:06:16;;;;;;;12.05;1.85;;;;;;;;;;5031018;28;20034;-74
2021/12/09 05:08:46;;;;;;;9.88;1.30;;;;;;;;;;5015925;28;20123;-75
2021/12/09 05:11:28;;;;;;;7.70;1.33;;;;;;;;;;5014904;28;20081;-75
2021/12/09 05:13:54;;;;;;;10.35;2.65;;;;;;;;;;5004029;28;20041;-75
2021/12/09 05:16:19;;;;;;;11.67;2.67;;;;;;;;;;5015831;28;20109;-74
2021/12/09 05:18:45;;;;;;;6.37;1.50;;;;;;;;;;5014843;28;20473;-74
2021/12/09 05:21:12;;;;;;;8.90;2.50;;;;;;;;;;5019054;28;20054;-74
2021/12/09 05:23:38;;;;;;;10.93;2.85;;;;;;;;;;5010322;28;20040;-73
2021/12/09 05:26:04;;;;;;;9.77;1.60;;;;;;;;;;5015488;28;20038;-73
2021/12/09 05:28:35;;;;;;;13.85;2.20;;;;;;;;;;5030915;28;20038;-73
2021/12/09 05:33:45;;;;;;;7.88;1.50;;;;;;;;;;5020228;28;20509;-73
2021/12/09 05:36:11;;;;;;;17.87;2.37;;;;;;;;;;5014241;28;20034;-74
2021/12/09 05:38:37;;;;;;;9.80;1.63;;;;;;;;;;5014178;28;20371;-73
2021/12/09 05:41:03;;;;;;;8.53;1.50;;;;;;;;;;5010985;28;20030;-73
2021/12/09 05:43:28;;;;;;;13.23;1.60;;;;;;;;;;5008664;28;20038;-73
2021/12/09 05:45:54;;;;;;;5.87;1.70;;;;;;;;;;5014936;28;20034;-73
2021/12/09 05:48:20;;;;;;;11.63;1.63;;;;;;;;;;5014130;28;20049;-73
2021/12/09 05:50:45;;;;;;;9.00;2.23;;;;;;;;;;5015387;28;20045;-73
2021/12/09 05:53:11;;;;;;;9.90;1.90;;;;;;;;;;5015084;28;20045;-73
2021/12/09 05:55:37;;;;;;;6.33;1.60;;;;;;;;;;5015338;28;20034;-73
2021/12/09 05:58:02;;;;;;;4.77;2.10;;;;;;;;;;5014936;28;20034;-73
2021/12/09 06:00:28;;;;;;;9.37;1.67;;;;;;;;;;5023813;28;20050;-73
2021/12/09 06:02:53;;;;;;;20.33;2.47;;;;;;;;;;5015052;28;20033;-73
2021/12/09 06:05:19;;;;;;;17.57;2.10;;;;;;;;;;5014900;28;20045;-73
2021/12/09 06:07:45;;;;;;;10.13;2.27;;;;;;;;;;5013855;28;20415;-73
2021/12/09 06:10:11;;;;;;;16.10;2.07;;;;;;;;;;5013873;28;20030;-73
2021/12/09 06:12:37;;;;;;;13.10;2.70;;;;;;;;;;5013604;28;20445;-73
2021/12/09 06:15:03;;;;;;;8.98;2.00;;;;;;;;;;5013506;28;20073;-73
2021/12/09 06:17:29;;;;;;;12.70;3.33;;;;;;;;;;5010042;28;20041;-74
2021/12/09 06:19:54;;;;;;;8.10;1.70;;;;;;;;;;5007922;28;20041;-73
2021/12/09 06:22:20;;;;;;;7.07;2.00;;;;;;;;;;5014610;28;20120;-73
2021/12/09 06:24:46;;;;;;;20.93;1.93;;;;;;;;;;5014519;28;20377;-73
2021/12/09 06:27:12;;;;;;;7.78;2.35;;;;;;;;;;5014640;28;20048;-73
2021/12/09 06:29:38;;;;;;;12.45;2.13;;;;;;;;;;5014329;28;20409;-73
2021/12/09 06:32:04;;;;;;;12.63;2.50;;;;;;;;;;5013341;28;20030;-74
2021/12/09 06:34:30;;;;;;;12.40;2.00;;;;;;;;;;5014369;28;20034;-73
2021/12/09 06:36:55;;;;;;;12.13;2.33;;;;;;;;;;5014273;28;20530;-73
2021/12/09 06:39:21;;;;;;;13.17;2.27;;;;;;;;;;5014134;28;20034;-74
2021/12/09 06:41:46;;;;;;;11.60;2.30;;;;;;;;;;5007611;28;20038;-73
2021/12/09 06:44:12;;;;;;;28.77;4.23;;;;;;;;;;5007657;28;20390;-73
2021/12/09 06:46:37;;;;;;;11.63;2.30;;;;;;;;;;5013819;28;20486;-73
2021/12/09 06:49:04;;;;;;;10.60;3.37;;;;;;;;;;5014217;28;20049;-73
2021/12/09 06:51:29;;;;;;;12.75;2.35;;;;;;;;;;5012516;28;20400;-74
2021/12/09 06:53:56;;;;;;;15.40;2.70;;;;;;;;;;5013203;28;20045;-73
2021/12/09 06:56:22;;;;;;;16.05;2.17;;;;;;;;;;5003005;28;20034;-74
2021/12/09 06:58:48;;;;;;;8.38;1.80;;;;;;;;;;5007064;28;20089;-73
2021/12/09 07:01:14;;;;;;;6.30;1.83;;;;;;;;;;5009376;28;20069;-73
2021/12/09 07:03:39;;;;;;;11.18;2.55;;;;;;;;;;5008806;28;20046;-73
2021/12/09 07:06:06;;;;;;;16.63;4.70;;;;;;;;;;5014027;28;20050;-75
2021/12/09 07:08:41;;;;;;;16.30;5.03;;;;;;;;;;5013610;28;20025;-76
2021/12/09 07:11:07;;;;;;;18.52;3.58;;;;;;;;;;5012604;28;20030;-76
2021/12/09 07:13:32;;;;;;;7.93;2.77;;;;;;;;;;5013614;28;20048;-75
2021/12/09 07:15:58;;;;;;;4.40;1.93;;;;;;;;;;5012620;28;20034;-72
2021/12/09 07:18:25;;;;;;;17.65;4.13;;;;;;;;;;5013840;28;20038;-72
2021/12/09 07:20:54;;;;;;;13.95;2.78;;;;;;;;;;5013531;28;20496;-72
2021/12/09 07:23:19;;;;;;;11.98;5.85;;;;;;;;;;5009659;28;20513;-73
2021/12/09 07:25:45;;;;;;;18.07;5.40;;;;;;;;;;5012296;28;20042;-72
2021/12/09 07:28:11;;;;;;;11.30;4.87;;;;;;;;;;5012720;28;20056;-72
2021/12/09 07:30:36;;;;;;;20.20;7.47;;;;;;;;;;5012233;28;20053;-72
2021/12/09 07:33:02;;;;;;;17.93;8.47;;;;;;;;;;5013686;28;20042;-73
2021/12/09 07:35:30;;;;;;;17.77;8.03;;;;;;;;;;5013626;28;20041;-72
2021/12/09 07:37:57;;;;;;;23.58;8.98;;;;;;;;;;5005922;28;20033;-72
2021/12/09 07:40:23;;;;;;;15.23;8.85;;;;;;;;;;5006479;28;20045;-72
2021/12/09 07:42:48;;;;;;;19.23;9.47;;;;;;;;;;5012343;28;20481;-72
2021/12/09 07:45:15;;;;;;;31.67;8.77;;;;;;;;;;5012312;28;20032;-72
2021/12/09 07:47:41;;;;;;;15.07;6.88;;;;;;;;;;5001693;28;20041;-72
2021/12/09 07:50:08;;;;;;;20.17;9.90;;;;;;;;;;5008570;28;20124;-72
2021/12/09 07:52:34;;;;;;;20.45;8.98;;;;;;;;;;5008897;28;20030;-72
2021/12/09 07:55:00;;;;;;;22.17;10.32;;;;;;;;;;4995626;28;20061;-72
2021/12/09 07:57:25;;;;;;;26.80;9.83;;;;;;;;;;5013343;28;20458;-72
2021/12/09 07:59:50;;;;;;;17.30;9.57;;;;;;;;;;5013289;28;20473;-72
2021/12/09 08:02:16;;;;;;;27.10;10.03;;;;;;;;;;5013184;28;20041;-75
2021/12/09 08:04:42;;;;;;;22.53;9.63;;;;;;;;;;5007948;28;20049;-75
2021/12/09 08:07:07;;;;;;;15.17;8.40;;;;;;;;;;5013027;28;20171;-75
2021/12/09 08:09:33;;;;;;;17.70;8.87;;;;;;;;;;5013110;28;20041;-75
2021/12/09 08:11:59;;;;;;;19.00;9.75;;;;;;;;;;5013039;28;20038;-74
2021/12/09 08:14:24;;;;;;;22.10;8.80;;;;;;;;;;5009295;28;20041;-75
2021/12/09 08:17:08;;;;;;;19.33;8.13;;;;;;;;;;5004421;28;20052;-72
2021/12/09 08:19:33;;;;;;;21.70;7.88;;;;;;;;;;5006628;28;20121;-72
2021/12/09 08:21:59;;;;;;;15.53;8.63;;;;;;;;;;4995358;28;20049;-74
2021/12/09 08:24:24;;;;;;;12.87;8.37;;;;;;;;;;5010507;28;20040;-75
2021/12/09 08:26:50;;;;;;;15.67;7.83;;;;;;;;;;5012865;28;20474;-74
2021/12/09 08:29:15;;;;;;;30.67;9.37;;;;;;;;;;5028311;28;20080;-74
2021/12/09 08:31:40;;;;;;;18.60;8.37;;;;;;;;;;5012358;28;20479;-74
2021/12/09 08:34:06;;;;;;;20.50;6.10;;;;;;;;;;5009874;28;20520;-74
2021/12/09 08:36:32;;;;;;;16.13;7.80;;;;;;;;;;5012729;28;20050;-74
2021/12/09 08:38:58;;;;;;;24.77;8.18;;;;;;;;;;5009709;28;20103;-73
2021/12/09 08:41:25;;;;;;;17.10;6.70;;;;;;;;;;4997303;28;20454;-73
2021/12/09 08:43:50;;;;;;;;;;;;;;;;;;4998142;28;20034;-73
2021/12/09 08:46:17;;;;;;;13.77;7.00;;;;;;;;;;5005753;28;20288;-73
2021/12/09 08:48:43;;;;;;;14.93;7.28;;;;;;;;;;5011651;28;20032;-73
2021/12/09 08:51:09;;;;;;;17.42;6.65;;;;;;;;;;5012775;28;20034;-73
2021/12/09 08:53:35;;;;;;;11.25;6.30;;;;;;;;;;5012650;28;20053;-73
2021/12/09 08:56:01;;;;;;;19.60;6.70;;;;;;;;;;5010306;28;20034;-73
2021/12/09 08:58:28;;;;;;;11.13;4.70;;;;;;;;;;5012912;28;20173;-74
2021/12/09 09:00:57;;;;;;;10.07;4.72;;;;;;;;;;5012638;28;20041;-73
2021/12/09 09:03:23;;;;;;;21.08;5.22;;;;;;;;;;5021651;28;20026;-74
2021/12/09 09:05:49;;;;;;;10.65;4.53;;;;;;;;;;5006314;28;20132;-74
2021/12/09 09:08:14;;;;;;;15.97;5.63;;;;;;;;;;5015815;28;20157;-74
2021/12/09 09:10:41;;;;;;;17.13;6.83;;;;;;;;;;5015970;28;20029;-73
2021/12/09 09:13:06;;;;;;;20.83;6.20;;;;;;;;;;5016075;28;20049;-73
2021/12/09 09:15:32;;;;;;;13.03;3.97;;;;;;;;;;5006747;28;20425;-74
2021/12/09 09:17:59;;;;;;;10.10;3.50;;;;;;;;;;5016085;28;20060;-73
2021/12/09 09:20:27;;;;;;;15.43;4.20;;;;;;;;;;5005484;28;20038;-74
2021/12/09 09:22:52;;;;;;;9.27;3.28;;;;;;;;;;5012591;28;20065;-73
2021/12/09 09:25:22;;;;;;;14.93;5.30;;;;;;;;;;5014702;28;20038;-73
2021/12/09 09:27:48;;;;;;;10.57;3.90;;;;;;;;;;5007187;28;20065;-73
2021/12/09 09:30:17;;;;;;;16.15;4.95;;;;;;;;;;5013859;28;20050;-74
2021/12/09 09:32:44;;;;;;;13.63;4.85;;;;;;;;;;5006304;28;20042;-73
2021/12/09 09:35:10;;;;;;;;;;;;;;;;;;5013442;28;20117;-74
2021/12/09 09:37:36;;;;;;;7.63;3.40;;;;;;;;;;5014180;28;19917;-74
2021/12/09 09:40:05;;;;;;;12.10;3.20;;;;;;;;;;5007593;28;20497;-74
2021/12/09 09:45:08;;;;;;;11.07;4.05;;;;;;;;;;5019557;28;20069;-74
2021/12/09 09:47:34;;;;;;;8.98;4.20;;;;;;;;;;5010998;28;20049;-74
2021/12/09 09:49:59;;;;;;;16.27;5.33;;;;;;;;;;5015215;28;20124;-73
2021/12/09 09:52:25;;;;;;;16.63;5.43;;;;;;;;;;5015336;28;20026;-74
2021/12/09 09:54:53;;;;;;;10.82;4.78;;;;;;;;;;5030462;28;20049;-74
2021/12/09 09:57:18;;;;;;;13.75;3.83;;;;;;;;;;5014432;28;20083;-74
2021/12/09 09:59:44;;;;;;;8.60;4.13;;;;;;;;;;5011709;28;20038;-74
2021/12/09 10:02:11;;;;;;;13.23;4.30;;;;;;;;;;5014034;28;20469;-74
2021/12/09 10:04:45;;;;;;;8.30;2.33;;;;;;;;;;5029308;28;20044;-74
2021/12/09 10:07:12;;;;;;;14.18;3.25;;;;;;;;;;5014414;28;20030;-74
2021/12/09 10:09:38;;;;;;;7.40;1.98;;;;;;;;;;5012529;28;20042;-74
2021/12/09 10:12:04;;;;;;;6.80;2.10;;;;;;;;;;5007914;28;20037;-74
2021/12/09 10:14:34;;;;;;;8.70;2.03;;;;;;;;;;5009231;28;20108;-74
2021/12/09 10:17:07;;;;;;;9.63;2.47;;;;;;;;;;5019545;28;20042;-74
2021/12/09 10:19:35;;;;;;;12.88;1.63;;;;;;;;;;5014871;28;20030;-74
2021/12/09 10:22:05;;;;;;;14.13;2.33;;;;;;;;;;5014557;28;20048;-74
2021/12/09 10:24:31;;;;;;;14.38;3.70;;;;;;;;;;5009511;28;20030;-74
2021/12/09 10:26:57;;;;;;;11.25;2.42;;;;;;;;;;5013307;28;20051;-74
2021/12/09 10:29:42;;;;;;;12.23;2.87;;;;;;;;;;5014456;28;20481;-73
2021/12/09 10:32:11;;;;;;;10.95;2.50;;;;;;;;;;5009486;28;20030;-74
2021/12/09 10:34:42;;;;;;;5.78;2.05;;;;;;;;;;5011802;28;20076;-74
2021/12/09 10:37:13;;;;;;;9.27;1.65;;;;;;;;;;5012585;28;20084;-74
2021/12/09 10:39:40;;;;;;;7.97;2.67;;;;;;;;;;4993418;28;20417;-74
2021/12/09 10:42:13;;;;;;;11.60;1.95;;;;;;;;;;5005202;28;20164;-74
2021/12/09 10:44:44;;;;;;;16.33;3.88;;;;;;;;;;5013373;28;20051;-74
2021/12/09 10:47:15;;;;;;;12.00;2.78;;;;;;;;;;5006962;28;20053;-74
2021/12/09 10:50:06;;;;;;;10.98;3.45;;;;;;;;;;5013106;28;20062;-74
2021/12/09 10:52:38;;;;;;;14.48;4.15;;;;;;;;;;5021613;28;20064;-74
2021/12/09 10:55:19;;;;;;;13.45;3.95;;;;;;;;;;5022428;28;20444;-74
2021/12/09 10:57:46;;;;;;;15.38;2.70;;;;;;;;;;5011931;28;20044;-74
2021/12/09 11:00:20;;;;;;;14.38;2.05;;;;;;;;;;5008988;28;20093;-73
2021/12/09 11:03:07;;;;;;;12.90;2.00;;;;;;;;;;5008633;28;20052;-74
2021/12/09 11:05:54;;;;;;;10.00;1.90;;;;;;;;;;5008788;28;20041;-74
2021/12/09 11:08:27;;;;;;;13.45;1.90;;;;;;;;;;5009548;28;20544;-74
2021/12/09 11:11:04;;;;;;;7.50;2.38;;;;;;;;;;5008625;28;20041;-74
2021/12/09 11:13:48;;;;;;;;;;;;;;;;;;5025129;28;20397;-73
2021/12/09 11:16:23;;;;;;;10.77;2.33;;;;;;;;;;5004570;28;20284;-74
2021/12/09 11:18:51;;;;;;;9.57;2.05;;;;;;;;;;4993800;28;20621;-74
2021/12/09 11:21:21;;;;;;;11.15;1.40;;;;;;;;;;5003539;28;20538;-74
2021/12/09 11:23:55;;;;;;;12.38;2.50;;;;;;;;;;5012976;28;20041;-74
2021/12/09 11:29:38;;;;;;;6.65;1.58;;;;;;;;;;5012094;28;20404;-74
2021/12/09 11:32:34;;;;;;;12.35;1.70;;;;;;;;;;4982218;28;20038;-74
2021/12/09 11:35:14;;;;;;;6.57;1.60;;;;;;;;;;4985573;28;20038;-74
2021/12/09 11:37:51;;;;;;;12.88;1.88;;;;;;;;;;4989147;28;20042;-74
2021/12/09 11:40:37;;;;;;;8.02;1.55;;;;;;;;;;4992818;28;20113;-74
2021/12/09 11:43:04;;;;;;;10.20;2.30;;;;;;;;;;4988414;28;20042;-74
2021/12/09 11:45:32;;;;;;;13.70;2.67;;;;;;;;;;4993145;28;20031;-74
2021/12/09 11:47:59;;;;;;;12.45;2.42;;;;;;;;;;4993094;28;20107;-74
2021/12/09 11:50:27;;;;;;;14.43;3.13;;;;;;;;;;4991643;28;20072;-74
2021/12/09 11:52:53;;;;;;;12.80;3.05;;;;;;;;;;4991825;28;20467;-74
2021/12/09 11:55:28;;;;;;;15.45;2.58;;;;;;;;;;4975683;28;20410;-74
2021/12/09 12:15:26;;;;;;;9.70;3.45;;;;;;;;;;4992830;28;20541;-75
2021/12/09 12:18:39;;;;;;;10.25;3.22;;;;;;;;;;4992717;28;20113;-75
2021/12/09 12:37:48;;;;;;;11.95;2.00;;;;;;;;;;5012103;28;20038;-74
2021/12/09 12:40:17;;;;;;;13.15;2.33;;;;;;;;;;5012388;28;20046;-74
2021/12/09 12:42:50;;;;;;;10.65;1.90;;;;;;;;;;5011823;28;20030;-74
2021/12/09 12:45:53;;;;;;;14.93;2.63;;;;;;;;;;5010473;28;20066;-74
2021/12/09 12:51:07;;;;;;;10.07;2.03;;;;;;;;;;5015503;28;20045;-74
2021/12/09 12:53:40;;;;;;;10.80;2.65;;;;;;;;;;5009923;28;20497;-74
2021/12/09 12:56:08;;;;;;;12.07;3.38;;;;;;;;;;5009301;28;20050;-74
2021/12/09 12:58:34;;;;;;;11.43;2.55;;;;;;;;;;5014983;28;20474;-74
2021/12/09 13:01:17;;;;;;;8.83;1.93;;;;;;;;;;5015309;28;20092;-74
2021/12/09 13:03:48;;;;;;;17.77;3.38;;;;;;;;;;5010600;28;20053;-74
2021/12/09 13:06:58;;;;;;;24.15;3.80;;;;;;;;;;5013183;28;20042;-74
2021/12/09 13:09:39;;;;;;;8.43;2.38;;;;;;;;;;5010050;28;20038;-74
2021/12/09 13:12:08;;;;;;;11.02;2.65;;;;;;;;;;5009201;28;20062;-74
2021/12/09 13:15:06;;;;;;;20.25;4.22;;;;;;;;;;5014276;28;20159;-74
2021/12/09 13:18:01;;;;;;;10.93;2.85;;;;;;;;;;5016940;28;20052;-74
2021/12/09 13:20:37;;;;;;;10.07;2.72;;;;;;;;;;4984189;28;20446;-74
2021/12/09 13:23:23;;;;;;;6.75;1.95;;;;;;;;;;5004685;28;20038;-74
2021/12/09 13:29:20;;;;;;;15.02;4.45;;;;;;;;;;5014861;28;20398;-74
2021/12/09 13:32:13;;;;;;;9.40;2.60;;;;;;;;;;5013179;28;20177;-74
2021/12/09 13:34:49;;;;;;;7.00;2.20;;;;;;;;;;5019128;28;20049;-74
2021/12/09 13:48:18;;;;;;;12.05;3.90;;;;;;;;;;5007496;28;20452;-74
2021/12/09 13:55:36;;;;;;;14.77;4.30;;;;;;;;;;5012748;28;20069;-74
2021/12/09 13:58:10;;;;;;;20.27;5.35;;;;;;;;;;5004403;28;20022;-74
2021/12/09 14:00:41;;;;;;;7.43;3.45;;;;;;;;;;5012967;28;20124;-74
2021/12/09 14:03:08;;;;;;;13.13;3.85;;;;;;;;;;5012976;28;20034;-74
2021/12/09 14:05:45;;;;;;;16.52;3.60;;;;;;;;;;5013847;28;20037;-74
2021/12/09 14:08:12;;;;;;;8.40;2.67;;;;;;;;;;5014198;28;20072;-74
2021/12/09 14:10:42;;;;;;;7.78;2.20;;;;;;;;;;5013204;28;20038;-74
2021/12/09 14:13:14;;;;;;;11.60;1.52;;;;;;;;;;5001896;28;20042;-74
2021/12/09 14:15:57;;;;;;;14.23;2.10;;;;;;;;;;5017697;28;20469;-74
2021/12/09 14:18:29;;;;;;;10.38;1.70;;;;;;;;;;5009610;28;20026;-74
2021/12/09 14:20:55;;;;;;;7.68;1.83;;;;;;;;;;5006423;28;20037;-74
2021/12/09 14:23:20;;;;;;;5.23;1.60;;;;;;;;;;5003488;28;20105;-74
2021/12/09 14:25:46;;;;;;;6.27;1.70;;;;;;;;;;5013820;28;20109;-74
2021/12/09 14:28:15;;;;;;;11.10;2.60;;;;;;;;;;5014296;28;20100;-74
2021/12/09 14:30:41;;;;;;;14.30;2.58;;;;;;;;;;4996564;28;21657;-75
2021/12/09 14:33:09;;;;;;;15.52;1.92;;;;;;;;;;5006715;28;20034;-74
2021/12/09 14:35:42;;;;;;;13.13;1.88;;;;;;;;;;5006736;28;20359;-74
2021/12/09 14:38:08;;;;;;;10.38;1.90;;;;;;;;;;5005747;28;20042;-74
2021/12/09 14:40:40;;;;;;;13.88;2.25;;;;;;;;;;4995167;28;20128;-75
2021/12/09 14:43:12;;;;;;;10.23;2.50;;;;;;;;;;5011458;28;20038;-74
2021/12/09 14:45:52;;;;;;;13.27;2.42;;;;;;;;;;5012329;28;20030;-74
2021/12/09 14:48:27;;;;;;;14.60;3.45;;;;;;;;;;5010617;28;20449;-74
2021/12/09 14:50:52;;;;;;;16.17;3.05;;;;;;;;;;5012702;28;20025;-74
2021/12/09 14:53:31;;;;;;;11.20;2.77;;;;;;;;;;5012472;28;20102;-74
2021/12/09 14:55:56;;;;;;;10.20;1.38;;;;;;;;;;5004644;28;20026;-74
2021/12/09 14:58:23;;;;;;;20.80;2.80;;;;;;;;;;5010767;28;20095;-74
2021/12/09 15:01:03;;;;;;;8.38;2.92;;;;;;;;;;5009269;28;20379;-74
2021/12/09 15:03:43;;;;;;;11.90;3.35;;;;;;;;;;5011755;28;20073;-74
2021/12/09 15:06:21;;;;;;;13.75;4.38;;;;;;;;;;5009305;28;20520;-75
2021/12/09 15:08:56;;;;;;;15.80;4.22;;;;;;;;;;5010007;28;20037;-74
2021/12/09 15:11:21;;;;;;;20.77;5.45;;;;;;;;;;5012174;28;20523;-74
2021/12/09 15:13:49;;;;;;;14.43;3.53;;;;;;;;;;5010628;28;20041;-74
2021/12/09 15:16:26;;;;;;;12.63;3.95;;;;;;;;;;5009768;28;20117;-74
2021/12/09 15:18:52;;;;;;;12.90;4.10;;;;;;;;;;5010926;28;20056;-74
2021/12/09 15:21:29;;;;;;;15.30;4.97;;;;;;;;;;5011576;28;20473;-74
2021/12/09 15:23:58;;;;;;;10.38;4.50;;;;;;;;;;5008085;28;20092;-74
2021/12/09 15:26:33;;;;;;;14.30;7.20;;;;;;;;;;5012082;28;20052;-73
2021/12/09 15:29:10;;;;;;;22.25;8.13;;;;;;;;;;4999894;28;20041;-73
2021/12/09 15:31:41;;;;;;;14.77;7.28;;;;;;;;;;4999964;28;20411;-73
2021/12/09 15:34:16;;;;;;;15.35;6.07;;;;;;;;;;5011248;28;20040;-73
2021/12/09 15:36:45;;;;;;;24.50;6.45;;;;;;;;;;5012267;28;20482;-74
2021/12/09 15:39:16;;;;;;;12.63;5.28;;;;;;;;;;5005206;28;20038;-74
2021/12/09 15:41:43;;;;;;;19.92;5.60;;;;;;;;;;5007291;28;20066;-74
2021/12/09 15:44:17;;;;;;;14.02;4.90;;;;;;;;;;5008998;28;20037;-74
2021/12/09 15:46:51;;;;;;;20.83;6.18;;;;;;;;;;4997866;28;20049;-74
2021/12/09 15:49:17;;;;;;;10.57;4.32;;;;;;;;;;5012255;28;20037;-74